sensor_id;sensor_type;location;lat;lon;timestamp;P1;durP1;ratioP1;P2;durP2;ratioP2
68593;SDS011;55563;52.416;13.548;2023-10-08T00:01:38;1.17;;;1.05;;
68593;SDS011;55563;52.416;13.548;2023-10-08T00:03:43;2.35;;;1.10;;
68593;SDS011;55563;52.416;13.548;2023-10-08T00:05:49;2.35;;;1.33;;
68593;SDS011;55563;52.416;13.548;2023-10-08T00:07:49;2.58;;;1.60;;
68593;SDS011;55563;52.416;13.548;2023-10-08T00:09:51;4.15;;;1.75;;
68593;SDS011;55563;52.416;13.548;2023-10-08T00:11:52;3.45;;;2.10;;
68593;SDS011;55563;52.416;13.548;2023-10-08T00:13:56;4.55;;;2.42;;
68593;SDS011;55563;52.416;13.548;2023-10-08T00:15:57;5.28;;;2.40;;
68593;SDS011;55563;52.416;13.548;2023-10-08T00:17:58;4.35;;;2.33;;
68593;SDS011;55563;52.416;13.548;2023-10-08T00:19:59;3.38;;;2.05;;
68593;SDS011;55563;52.416;13.548;2023-10-08T00:22:01;2.50;;;1.80;;
68593;SDS011;55563;52.416;13.548;2023-10-08T00:24:06;2.42;;;1.52;;
68593;SDS011;55563;52.416;13.548;2023-10-08T00:26:08;3.17;;;1.65;;
68593;SDS011;55563;52.416;13.548;2023-10-08T00:28:09;2.97;;;1.25;;
68593;SDS011;55563;52.416;13.548;2023-10-08T00:30:12;2.30;;;1.23;;
68593;SDS011;55563;52.416;13.548;2023-10-08T00:32:18;2.65;;;1.23;;
68593;SDS011;55563;52.416;13.548;2023-10-08T00:34:20;2.17;;;1.30;;
68593;SDS011;55563;52.416;13.548;2023-10-08T00:36:22;2.57;;;1.23;;
68593;SDS011;55563;52.416;13.548;2023-10-08T00:38:24;1.42;;;1.13;;
68593;SDS011;55563;52.416;13.548;2023-10-08T00:40:39;2.10;;;1.27;;
68593;SDS011;55563;52.416;13.548;2023-10-08T00:42:41;1.85;;;1.10;;
68593;SDS011;55563;52.416;13.548;2023-10-08T00:44:46;2.50;;;1.13;;
68593;SDS011;55563;52.416;13.548;2023-10-08T00:46:51;2.88;;;1.00;;
68593;SDS011;55563;52.416;13.548;2023-10-08T00:48:53;1.30;;;0.90;;
68593;SDS011;55563;52.416;13.548;2023-10-08T00:50:56;1.55;;;1.00;;
68593;SDS011;55563;52.416;13.548;2023-10-08T00:53:11;2.03;;;0.93;;
68593;SDS011;55563;52.416;13.548;2023-10-08T00:55:22;1.33;;;0.80;;
68593;SDS011;55563;52.416;13.548;2023-10-08T00:57:30;1.67;;;1.00;;
68593;SDS011;55563;52.416;13.548;2023-10-08T00:59:34;1.85;;;1.00;;
68593;SDS011;55563;52.416;13.548;2023-10-08T01:01:45;1.95;;;0.82;;
68593;SDS011;55563;52.416;13.548;2023-10-08T01:03:51;2.45;;;1.05;;
68593;SDS011;55563;52.416;13.548;2023-10-08T01:05:55;1.40;;;0.93;;
68593;SDS011;55563;52.416;13.548;2023-10-08T01:07:57;1.48;;;0.90;;
68593;SDS011;55563;52.416;13.548;2023-10-08T01:09:59;1.38;;;0.95;;
68593;SDS011;55563;52.416;13.548;2023-10-08T01:14:24;2.80;;;0.90;;
68593;SDS011;55563;52.416;13.548;2023-10-08T01:16:32;2.10;;;0.88;;
68593;SDS011;55563;52.416;13.548;2023-10-08T01:18:34;1.92;;;0.80;;
68593;SDS011;55563;52.416;13.548;2023-10-08T01:20:35;1.33;;;1.10;;
68593;SDS011;55563;52.416;13.548;2023-10-08T01:22:37;2.30;;;0.90;;
68593;SDS011;55563;52.416;13.548;2023-10-08T01:24:39;1.52;;;1.00;;
68593;SDS011;55563;52.416;13.548;2023-10-08T01:26:41;2.53;;;0.82;;
68593;SDS011;55563;52.416;13.548;2023-10-08T01:28:41;4.50;;;1.30;;
68593;SDS011;55563;52.416;13.548;2023-10-08T01:30:44;1.85;;;0.88;;
68593;SDS011;55563;52.416;13.548;2023-10-08T01:32:46;2.20;;;1.10;;
68593;SDS011;55563;52.416;13.548;2023-10-08T01:34:48;2.55;;;1.10;;
68593;SDS011;55563;52.416;13.548;2023-10-08T01:38:49;1.80;;;0.90;;
68593;SDS011;55563;52.416;13.548;2023-10-08T01:40:50;3.10;;;1.00;;
68593;SDS011;55563;52.416;13.548;2023-10-08T01:42:51;2.83;;;1.13;;
68593;SDS011;55563;52.416;13.548;2023-10-08T01:44:53;2.22;;;1.00;;
68593;SDS011;55563;52.416;13.548;2023-10-08T01:46:55;2.58;;;0.98;;
68593;SDS011;55563;52.416;13.548;2023-10-08T01:48:59;1.83;;;1.08;;
68593;SDS011;55563;52.416;13.548;2023-10-08T01:51:05;1.30;;;0.95;;
68593;SDS011;55563;52.416;13.548;2023-10-08T01:53:12;1.60;;;0.80;;
68593;SDS011;55563;52.416;13.548;2023-10-08T01:55:15;3.33;;;0.90;;
68593;SDS011;55563;52.416;13.548;2023-10-08T01:57:18;2.13;;;0.90;;
68593;SDS011;55563;52.416;13.548;2023-10-08T01:59:19;3.72;;;0.98;;
68593;SDS011;55563;52.416;13.548;2023-10-08T02:01:20;2.55;;;1.35;;
68593;SDS011;55563;52.416;13.548;2023-10-08T02:03:21;1.70;;;0.90;;
68593;SDS011;55563;52.416;13.548;2023-10-08T02:05:23;2.38;;;0.82;;
68593;SDS011;55563;52.416;13.548;2023-10-08T02:07:23;2.78;;;1.00;;
68593;SDS011;55563;52.416;13.548;2023-10-08T02:09:24;2.28;;;0.90;;
68593;SDS011;55563;52.416;13.548;2023-10-08T02:11:26;1.00;;;0.85;;
68593;SDS011;55563;52.416;13.548;2023-10-08T02:15:28;1.80;;;1.15;;
68593;SDS011;55563;52.416;13.548;2023-10-08T02:17:30;2.45;;;1.00;;
68593;SDS011;55563;52.416;13.548;2023-10-08T02:19:30;1.48;;;0.90;;
68593;SDS011;55563;52.416;13.548;2023-10-08T02:21:31;1.77;;;1.02;;
68593;SDS011;55563;52.416;13.548;2023-10-08T02:23:31;1.08;;;0.80;;
68593;SDS011;55563;52.416;13.548;2023-10-08T02:25:32;2.35;;;1.10;;
68593;SDS011;55563;52.416;13.548;2023-10-08T02:27:35;1.65;;;0.90;;
68593;SDS011;55563;52.416;13.548;2023-10-08T02:29:37;2.28;;;0.90;;
68593;SDS011;55563;52.416;13.548;2023-10-08T02:31:40;2.95;;;1.13;;
68593;SDS011;55563;52.416;13.548;2023-10-08T02:33:41;3.30;;;0.98;;
68593;SDS011;55563;52.416;13.548;2023-10-08T02:35:42;3.33;;;1.00;;
68593;SDS011;55563;52.416;13.548;2023-10-08T02:37:44;3.92;;;1.05;;
68593;SDS011;55563;52.416;13.548;2023-10-08T02:39:46;2.88;;;1.30;;
68593;SDS011;55563;52.416;13.548;2023-10-08T02:41:47;2.08;;;0.93;;
68593;SDS011;55563;52.416;13.548;2023-10-08T02:43:49;4.00;;;1.40;;
68593;SDS011;55563;52.416;13.548;2023-10-08T02:45:50;3.83;;;1.10;;
68593;SDS011;55563;52.416;13.548;2023-10-08T02:47:52;2.25;;;0.80;;
68593;SDS011;55563;52.416;13.548;2023-10-08T02:49:53;2.20;;;0.93;;
68593;SDS011;55563;52.416;13.548;2023-10-08T02:53:56;2.00;;;0.90;;
68593;SDS011;55563;52.416;13.548;2023-10-08T02:55:56;2.40;;;1.10;;
68593;SDS011;55563;52.416;13.548;2023-10-08T02:57:57;1.23;;;0.95;;
68593;SDS011;55563;52.416;13.548;2023-10-08T03:02:00;3.90;;;1.35;;
68593;SDS011;55563;52.416;13.548;2023-10-08T03:04:00;4.10;;;1.25;;
68593;SDS011;55563;52.416;13.548;2023-10-08T03:06:08;3.35;;;1.45;;
68593;SDS011;55563;52.416;13.548;2023-10-08T03:08:12;4.57;;;1.33;;
68593;SDS011;55563;52.416;13.548;2023-10-08T03:12:20;2.45;;;1.33;;
68593;SDS011;55563;52.416;13.548;2023-10-08T03:14:25;2.05;;;1.13;;
68593;SDS011;55563;52.416;13.548;2023-10-08T03:16:26;2.83;;;1.10;;
68593;SDS011;55563;52.416;13.548;2023-10-08T03:18:34;3.45;;;1.33;;
68593;SDS011;55563;52.416;13.548;2023-10-08T03:20:36;2.95;;;1.40;;
68593;SDS011;55563;52.416;13.548;2023-10-08T03:22:38;1.73;;;1.42;;
68593;SDS011;55563;52.416;13.548;2023-10-08T03:24:45;3.55;;;1.20;;
68593;SDS011;55563;52.416;13.548;2023-10-08T03:26:49;2.60;;;1.20;;
68593;SDS011;55563;52.416;13.548;2023-10-08T03:28:55;2.08;;;1.30;;
68593;SDS011;55563;52.416;13.548;2023-10-08T03:31:00;2.75;;;1.40;;
68593;SDS011;55563;52.416;13.548;2023-10-08T03:33:05;2.00;;;1.42;;
68593;SDS011;55563;52.416;13.548;2023-10-08T03:35:10;2.80;;;1.23;;
68593;SDS011;55563;52.416;13.548;2023-10-08T03:37:13;1.98;;;1.20;;
68593;SDS011;55563;52.416;13.548;2023-10-08T03:39:20;3.25;;;1.23;;
68593;SDS011;55563;52.416;13.548;2023-10-08T03:41:21;2.35;;;1.30;;
68593;SDS011;55563;52.416;13.548;2023-10-08T03:43:28;2.88;;;1.38;;
68593;SDS011;55563;52.416;13.548;2023-10-08T03:45:43;5.13;;;1.50;;
68593;SDS011;55563;52.416;13.548;2023-10-08T03:48:04;4.10;;;1.65;;
68593;SDS011;55563;52.416;13.548;2023-10-08T03:50:06;2.72;;;1.38;;
68593;SDS011;55563;52.416;13.548;2023-10-08T03:52:09;2.83;;;1.52;;
68593;SDS011;55563;52.416;13.548;2023-10-08T03:54:10;2.90;;;1.52;;
68593;SDS011;55563;52.416;13.548;2023-10-08T03:56:31;2.63;;;1.33;;
68593;SDS011;55563;52.416;13.548;2023-10-08T03:58:32;2.15;;;1.33;;
68593;SDS011;55563;52.416;13.548;2023-10-08T04:00:34;2.95;;;1.42;;
68593;SDS011;55563;52.416;13.548;2023-10-08T04:02:41;2.25;;;1.20;;
68593;SDS011;55563;52.416;13.548;2023-10-08T04:04:46;2.15;;;1.23;;
68593;SDS011;55563;52.416;13.548;2023-10-08T04:07:07;2.72;;;1.42;;
68593;SDS011;55563;52.416;13.548;2023-10-08T04:09:27;3.20;;;1.38;;
68593;SDS011;55563;52.416;13.548;2023-10-08T04:11:31;5.28;;;1.33;;
68593;SDS011;55563;52.416;13.548;2023-10-08T04:13:35;2.60;;;1.20;;
68593;SDS011;55563;52.416;13.548;2023-10-08T04:15:44;2.45;;;1.20;;
68593;SDS011;55563;52.416;13.548;2023-10-08T04:17:45;2.22;;;1.20;;
68593;SDS011;55563;52.416;13.548;2023-10-08T04:19:51;3.38;;;1.45;;
68593;SDS011;55563;52.416;13.548;2023-10-08T04:21:52;3.35;;;1.50;;
68593;SDS011;55563;52.416;13.548;2023-10-08T04:23:55;3.33;;;1.20;;
68593;SDS011;55563;52.416;13.548;2023-10-08T04:25:57;2.33;;;1.27;;
68593;SDS011;55563;52.416;13.548;2023-10-08T04:27:59;2.70;;;1.60;;
68593;SDS011;55563;52.416;13.548;2023-10-08T04:30:01;3.55;;;0.98;;
68593;SDS011;55563;52.416;13.548;2023-10-08T04:32:01;3.75;;;1.20;;
68593;SDS011;55563;52.416;13.548;2023-10-08T04:34:07;4.07;;;1.30;;
68593;SDS011;55563;52.416;13.548;2023-10-08T04:36:16;2.08;;;1.42;;
68593;SDS011;55563;52.416;13.548;2023-10-08T04:38:21;2.55;;;1.20;;
68593;SDS011;55563;52.416;13.548;2023-10-08T04:40:23;2.50;;;1.25;;
68593;SDS011;55563;52.416;13.548;2023-10-08T04:42:24;3.08;;;1.23;;
68593;SDS011;55563;52.416;13.548;2023-10-08T04:44:26;3.85;;;1.40;;
68593;SDS011;55563;52.416;13.548;2023-10-08T04:46:27;1.40;;;1.08;;
68593;SDS011;55563;52.416;13.548;2023-10-08T04:48:47;2.20;;;1.20;;
68593;SDS011;55563;52.416;13.548;2023-10-08T04:50:50;3.55;;;1.10;;
68593;SDS011;55563;52.416;13.548;2023-10-08T04:52:58;3.53;;;1.15;;
68593;SDS011;55563;52.416;13.548;2023-10-08T04:54:59;3.25;;;1.30;;
68593;SDS011;55563;52.416;13.548;2023-10-08T04:57:12;1.65;;;1.23;;
68593;SDS011;55563;52.416;13.548;2023-10-08T04:59:16;3.22;;;1.25;;
68593;SDS011;55563;52.416;13.548;2023-10-08T05:01:22;2.83;;;1.80;;
68593;SDS011;55563;52.416;13.548;2023-10-08T05:03:40;2.92;;;1.20;;
68593;SDS011;55563;52.416;13.548;2023-10-08T05:05:54;6.55;;;1.85;;
68593;SDS011;55563;52.416;13.548;2023-10-08T05:08:02;3.97;;;1.58;;
68593;SDS011;55563;52.416;13.548;2023-10-08T05:10:17;4.88;;;1.80;;
68593;SDS011;55563;52.416;13.548;2023-10-08T05:12:28;5.20;;;1.75;;
68593;SDS011;55563;52.416;13.548;2023-10-08T05:14:49;2.78;;;1.63;;
68593;SDS011;55563;52.416;13.548;2023-10-08T05:17:09;3.13;;;1.70;;
68593;SDS011;55563;52.416;13.548;2023-10-08T05:19:11;1.85;;;1.23;;
68593;SDS011;55563;52.416;13.548;2023-10-08T05:21:26;2.83;;;1.35;;
68593;SDS011;55563;52.416;13.548;2023-10-08T05:23:28;3.67;;;1.42;;
68593;SDS011;55563;52.416;13.548;2023-10-08T05:25:42;3.40;;;1.75;;
68593;SDS011;55563;52.416;13.548;2023-10-08T05:27:58;2.75;;;1.27;;
68593;SDS011;55563;52.416;13.548;2023-10-08T05:30:01;2.85;;;1.50;;
68593;SDS011;55563;52.416;13.548;2023-10-08T05:32:23;2.88;;;1.33;;
68593;SDS011;55563;52.416;13.548;2023-10-08T05:34:38;2.22;;;1.50;;
68593;SDS011;55563;52.416;13.548;2023-10-08T05:36:59;1.88;;;1.10;;
68593;SDS011;55563;52.416;13.548;2023-10-08T05:39:10;2.25;;;1.77;;
68593;SDS011;55563;52.416;13.548;2023-10-08T05:41:31;2.78;;;1.75;;
68593;SDS011;55563;52.416;13.548;2023-10-08T05:43:39;4.55;;;2.00;;
68593;SDS011;55563;52.416;13.548;2023-10-08T05:45:43;3.17;;;1.85;;
68593;SDS011;55563;52.416;13.548;2023-10-08T05:47:53;2.95;;;1.40;;
68593;SDS011;55563;52.416;13.548;2023-10-08T05:50:13;3.15;;;2.00;;
68593;SDS011;55563;52.416;13.548;2023-10-08T05:52:27;2.53;;;1.40;;
68593;SDS011;55563;52.416;13.548;2023-10-08T05:54:43;3.20;;;1.58;;
68593;SDS011;55563;52.416;13.548;2023-10-08T05:57:06;3.28;;;1.00;;
68593;SDS011;55563;52.416;13.548;2023-10-08T05:59:14;1.73;;;1.20;;
68593;SDS011;55563;52.416;13.548;2023-10-08T06:01:18;3.65;;;1.40;;
68593;SDS011;55563;52.416;13.548;2023-10-08T06:03:38;3.35;;;1.20;;
68593;SDS011;55563;52.416;13.548;2023-10-08T06:05:49;2.80;;;1.10;;
68593;SDS011;55563;52.416;13.548;2023-10-08T06:08:07;3.40;;;1.33;;
68593;SDS011;55563;52.416;13.548;2023-10-08T06:10:14;2.60;;;1.25;;
68593;SDS011;55563;52.416;13.548;2023-10-08T06:12:34;2.50;;;1.40;;
68593;SDS011;55563;52.416;13.548;2023-10-08T06:14:49;1.38;;;1.00;;
68593;SDS011;55563;52.416;13.548;2023-10-08T06:17:07;2.00;;;1.40;;
68593;SDS011;55563;52.416;13.548;2023-10-08T06:19:27;2.00;;;1.00;;
68593;SDS011;55563;52.416;13.548;2023-10-08T06:21:28;3.45;;;1.05;;
68593;SDS011;55563;52.416;13.548;2023-10-08T06:25:35;3.90;;;1.83;;
68593;SDS011;55563;52.416;13.548;2023-10-08T06:27:44;2.97;;;1.42;;
68593;SDS011;55563;52.416;13.548;2023-10-08T06:29:45;1.98;;;1.10;;
68593;SDS011;55563;52.416;13.548;2023-10-08T06:31:46;2.25;;;1.27;;
68593;SDS011;55563;52.416;13.548;2023-10-08T06:33:51;2.92;;;1.23;;
68593;SDS011;55563;52.416;13.548;2023-10-08T06:38:13;3.40;;;1.10;;
68593;SDS011;55563;52.416;13.548;2023-10-08T06:40:16;2.28;;;1.17;;
68593;SDS011;55563;52.416;13.548;2023-10-08T06:42:36;1.98;;;1.10;;
68593;SDS011;55563;52.416;13.548;2023-10-08T06:44:37;3.03;;;1.20;;
68593;SDS011;55563;52.416;13.548;2023-10-08T06:46:39;1.67;;;1.13;;
68593;SDS011;55563;52.416;13.548;2023-10-08T06:48:40;3.22;;;1.10;;
68593;SDS011;55563;52.416;13.548;2023-10-08T06:50:42;1.45;;;0.80;;
68593;SDS011;55563;52.416;13.548;2023-10-08T06:52:43;2.60;;;1.20;;
68593;SDS011;55563;52.416;13.548;2023-10-08T06:54:43;2.58;;;1.00;;
68593;SDS011;55563;52.416;13.548;2023-10-08T06:56:44;2.35;;;1.08;;
68593;SDS011;55563;52.416;13.548;2023-10-08T06:58:46;2.40;;;1.00;;
68593;SDS011;55563;52.416;13.548;2023-10-08T07:00:48;2.38;;;1.05;;
68593;SDS011;55563;52.416;13.548;2023-10-08T07:02:49;2.38;;;0.82;;
68593;SDS011;55563;52.416;13.548;2023-10-08T07:06:51;2.08;;;0.80;;
68593;SDS011;55563;52.416;13.548;2023-10-08T07:08:53;0.95;;;0.77;;
68593;SDS011;55563;52.416;13.548;2023-10-08T07:10:55;0.98;;;0.90;;
68593;SDS011;55563;52.416;13.548;2023-10-08T07:12:57;1.98;;;0.93;;
68593;SDS011;55563;52.416;13.548;2023-10-08T07:14:59;1.60;;;0.90;;
68593;SDS011;55563;52.416;13.548;2023-10-08T07:17:01;2.15;;;1.00;;
68593;SDS011;55563;52.416;13.548;2023-10-08T07:19:07;1.50;;;0.80;;
68593;SDS011;55563;52.416;13.548;2023-10-08T07:21:18;3.97;;;1.10;;
68593;SDS011;55563;52.416;13.548;2023-10-08T07:23:28;1.00;;;0.90;;
68593;SDS011;55563;52.416;13.548;2023-10-08T07:25:30;1.30;;;0.93;;
68593;SDS011;55563;52.416;13.548;2023-10-08T07:27:37;1.58;;;0.85;;
68593;SDS011;55563;52.416;13.548;2023-10-08T07:29:38;1.63;;;0.82;;
68593;SDS011;55563;52.416;13.548;2023-10-08T07:31:38;1.38;;;1.08;;
68593;SDS011;55563;52.416;13.548;2023-10-08T07:33:43;2.00;;;1.20;;
68593;SDS011;55563;52.416;13.548;2023-10-08T07:35:44;1.90;;;0.93;;
68593;SDS011;55563;52.416;13.548;2023-10-08T07:37:53;1.25;;;0.70;;
68593;SDS011;55563;52.416;13.548;2023-10-08T07:39:54;2.30;;;1.00;;
68593;SDS011;55563;52.416;13.548;2023-10-08T07:41:55;1.73;;;0.75;;
68593;SDS011;55563;52.416;13.548;2023-10-08T07:43:56;2.47;;;0.93;;
68593;SDS011;55563;52.416;13.548;2023-10-08T07:45:58;1.65;;;0.80;;
68593;SDS011;55563;52.416;13.548;2023-10-08T07:48:00;1.38;;;1.00;;
68593;SDS011;55563;52.416;13.548;2023-10-08T07:50:01;1.17;;;0.68;;
68593;SDS011;55563;52.416;13.548;2023-10-08T07:52:11;1.25;;;0.70;;
68593;SDS011;55563;52.416;13.548;2023-10-08T07:54:21;1.42;;;1.25;;
68593;SDS011;55563;52.416;13.548;2023-10-08T07:56:23;0.95;;;0.70;;
68593;SDS011;55563;52.416;13.548;2023-10-08T07:58:24;0.70;;;0.70;;
68593;SDS011;55563;52.416;13.548;2023-10-08T08:00:26;2.47;;;1.30;;
68593;SDS011;55563;52.416;13.548;2023-10-08T08:02:30;1.73;;;0.80;;
68593;SDS011;55563;52.416;13.548;2023-10-08T08:04:31;2.30;;;0.93;;
68593;SDS011;55563;52.416;13.548;2023-10-08T08:06:33;1.65;;;0.57;;
68593;SDS011;55563;52.416;13.548;2023-10-08T08:08:34;2.53;;;0.73;;
68593;SDS011;55563;52.416;13.548;2023-10-08T08:10:36;1.20;;;0.98;;
68593;SDS011;55563;52.416;13.548;2023-10-08T08:12:38;0.80;;;0.50;;
68593;SDS011;55563;52.416;13.548;2023-10-08T08:14:38;2.40;;;0.80;;
68593;SDS011;55563;52.416;13.548;2023-10-08T08:16:42;1.30;;;0.73;;
68593;SDS011;55563;52.416;13.548;2023-10-08T08:18:49;1.60;;;1.00;;
68593;SDS011;55563;52.416;13.548;2023-10-08T08:20:55;1.33;;;0.80;;
68593;SDS011;55563;52.416;13.548;2023-10-08T08:23:00;1.60;;;0.80;;
68593;SDS011;55563;52.416;13.548;2023-10-08T08:25:07;0.75;;;0.60;;
68593;SDS011;55563;52.416;13.548;2023-10-08T08:27:28;0.98;;;0.70;;
68593;SDS011;55563;52.416;13.548;2023-10-08T08:29:39;0.95;;;0.70;;
68593;SDS011;55563;52.416;13.548;2023-10-08T08:31:47;0.85;;;0.75;;
68593;SDS011;55563;52.416;13.548;2023-10-08T08:33:53;1.65;;;0.73;;
68593;SDS011;55563;52.416;13.548;2023-10-08T08:35:58;0.73;;;0.60;;
68593;SDS011;55563;52.416;13.548;2023-10-08T08:38:05;1.13;;;0.68;;
68593;SDS011;55563;52.416;13.548;2023-10-08T08:40:09;2.92;;;1.00;;
68593;SDS011;55563;52.416;13.548;2023-10-08T08:42:19;1.77;;;0.70;;
68593;SDS011;55563;52.416;13.548;2023-10-08T08:44:23;0.68;;;0.60;;
68593;SDS011;55563;52.416;13.548;2023-10-08T08:46:31;0.70;;;0.70;;
68593;SDS011;55563;52.416;13.548;2023-10-08T08:48:35;0.95;;;0.70;;
68593;SDS011;55563;52.416;13.548;2023-10-08T08:50:36;1.00;;;0.60;;
68593;SDS011;55563;52.416;13.548;2023-10-08T08:52:39;2.45;;;0.60;;
68593;SDS011;55563;52.416;13.548;2023-10-08T08:54:41;0.90;;;0.70;;
68593;SDS011;55563;52.416;13.548;2023-10-08T08:56:57;0.95;;;0.60;;
68593;SDS011;55563;52.416;13.548;2023-10-08T08:59:03;1.52;;;0.60;;
68593;SDS011;55563;52.416;13.548;2023-10-08T09:01:06;1.60;;;0.88;;
68593;SDS011;55563;52.416;13.548;2023-10-08T09:03:09;0.82;;;0.50;;
68593;SDS011;55563;52.416;13.548;2023-10-08T09:05:13;0.75;;;0.60;;
68593;SDS011;55563;52.416;13.548;2023-10-08T09:07:24;1.27;;;0.82;;
68593;SDS011;55563;52.416;13.548;2023-10-08T09:09:33;0.90;;;0.60;;
68593;SDS011;55563;52.416;13.548;2023-10-08T09:11:37;0.40;;;0.40;;
68593;SDS011;55563;52.416;13.548;2023-10-08T09:13:41;0.77;;;0.70;;
68593;SDS011;55563;52.416;13.548;2023-10-08T09:15:42;0.80;;;0.60;;
68593;SDS011;55563;52.416;13.548;2023-10-08T09:17:42;0.73;;;0.60;;
68593;SDS011;55563;52.416;13.548;2023-10-08T09:19:45;0.95;;;0.77;;
68593;SDS011;55563;52.416;13.548;2023-10-08T09:22:01;0.40;;;0.40;;
68593;SDS011;55563;52.416;13.548;2023-10-08T09:24:05;1.38;;;0.60;;
68593;SDS011;55563;52.416;13.548;2023-10-08T09:26:10;1.02;;;0.70;;
68593;SDS011;55563;52.416;13.548;2023-10-08T09:28:14;0.63;;;0.60;;
68593;SDS011;55563;52.416;13.548;2023-10-08T09:30:14;0.75;;;0.75;;
68593;SDS011;55563;52.416;13.548;2023-10-08T09:32:19;0.55;;;0.50;;
68593;SDS011;55563;52.416;13.548;2023-10-08T09:34:30;0.43;;;0.43;;
68593;SDS011;55563;52.416;13.548;2023-10-08T09:38:32;1.00;;;0.50;;
68593;SDS011;55563;52.416;13.548;2023-10-08T09:40:34;0.60;;;0.50;;
68593;SDS011;55563;52.416;13.548;2023-10-08T09:42:41;1.80;;;0.60;;
68593;SDS011;55563;52.416;13.548;2023-10-08T09:44:42;1.42;;;0.60;;
68593;SDS011;55563;52.416;13.548;2023-10-08T09:46:43;0.75;;;0.57;;
68593;SDS011;55563;52.416;13.548;2023-10-08T09:48:49;1.30;;;0.70;;
68593;SDS011;55563;52.416;13.548;2023-10-08T09:50:54;0.70;;;0.40;;
68593;SDS011;55563;52.416;13.548;2023-10-08T09:53:07;0.90;;;0.60;;
68593;SDS011;55563;52.416;13.548;2023-10-08T09:55:17;1.52;;;0.60;;
68593;SDS011;55563;52.416;13.548;2023-10-08T09:59:19;0.60;;;0.60;;
68593;SDS011;55563;52.416;13.548;2023-10-08T10:01:20;2.05;;;0.68;;
68593;SDS011;55563;52.416;13.548;2023-10-08T10:03:22;0.73;;;0.70;;
68593;SDS011;55563;52.416;13.548;2023-10-08T10:05:28;0.57;;;0.57;;
68593;SDS011;55563;52.416;13.548;2023-10-08T10:07:30;0.80;;;0.50;;
68593;SDS011;55563;52.416;13.548;2023-10-08T10:09:31;1.58;;;0.63;;
68593;SDS011;55563;52.416;13.548;2023-10-08T10:11:36;1.00;;;0.60;;
68593;SDS011;55563;52.416;13.548;2023-10-08T10:13:39;0.98;;;0.50;;
68593;SDS011;55563;52.416;13.548;2023-10-08T10:15:42;0.75;;;0.60;;
68593;SDS011;55563;52.416;13.548;2023-10-08T10:17:43;0.60;;;0.52;;
68593;SDS011;55563;52.416;13.548;2023-10-08T10:19:44;0.50;;;0.47;;
68593;SDS011;55563;52.416;13.548;2023-10-08T10:21:46;1.05;;;0.70;;
68593;SDS011;55563;52.416;13.548;2023-10-08T10:23:50;0.60;;;0.60;;
68593;SDS011;55563;52.416;13.548;2023-10-08T10:25:51;0.55;;;0.43;;
68593;SDS011;55563;52.416;13.548;2023-10-08T10:30:05;0.63;;;0.60;;
68593;SDS011;55563;52.416;13.548;2023-10-08T10:32:11;1.10;;;0.60;;
68593;SDS011;55563;52.416;13.548;2023-10-08T10:34:16;1.38;;;0.60;;
68593;SDS011;55563;52.416;13.548;2023-10-08T10:36:17;1.10;;;0.50;;
68593;SDS011;55563;52.416;13.548;2023-10-08T10:38:19;0.85;;;0.55;;
68593;SDS011;55563;52.416;13.548;2023-10-08T10:40:23;0.50;;;0.50;;
68593;SDS011;55563;52.416;13.548;2023-10-08T10:42:47;0.55;;;0.55;;
68593;SDS011;55563;52.416;13.548;2023-10-08T10:44:53;0.73;;;0.70;;
68593;SDS011;55563;52.416;13.548;2023-10-08T10:46:57;0.85;;;0.60;;
68593;SDS011;55563;52.416;13.548;2023-10-08T10:49:18;0.88;;;0.55;;
68593;SDS011;55563;52.416;13.548;2023-10-08T10:51:22;0.50;;;0.50;;
68593;SDS011;55563;52.416;13.548;2023-10-08T10:53:23;0.47;;;0.47;;
68593;SDS011;55563;52.416;13.548;2023-10-08T10:55:27;0.80;;;0.65;;
68593;SDS011;55563;52.416;13.548;2023-10-08T10:57:35;1.13;;;0.60;;
68593;SDS011;55563;52.416;13.548;2023-10-08T10:59:36;0.50;;;0.50;;
68593;SDS011;55563;52.416;13.548;2023-10-08T11:01:37;0.63;;;0.63;;
68593;SDS011;55563;52.416;13.548;2023-10-08T11:03:48;1.15;;;0.70;;
68593;SDS011;55563;52.416;13.548;2023-10-08T11:05:56;0.77;;;0.63;;
68593;SDS011;55563;52.416;13.548;2023-10-08T11:08:00;0.60;;;0.60;;
68593;SDS011;55563;52.416;13.548;2023-10-08T11:10:05;0.90;;;0.60;;
68593;SDS011;55563;52.416;13.548;2023-10-08T11:12:10;0.73;;;0.70;;
68593;SDS011;55563;52.416;13.548;2023-10-08T11:14:13;0.73;;;0.70;;
68593;SDS011;55563;52.416;13.548;2023-10-08T11:16:22;0.65;;;0.50;;
68593;SDS011;55563;52.416;13.548;2023-10-08T11:18:23;1.25;;;0.90;;
68593;SDS011;55563;52.416;13.548;2023-10-08T11:20:27;1.67;;;1.00;;
68593;SDS011;55563;52.416;13.548;2023-10-08T11:22:45;0.70;;;0.70;;
68593;SDS011;55563;52.416;13.548;2023-10-08T11:24:45;0.70;;;0.60;;
68593;SDS011;55563;52.416;13.548;2023-10-08T11:26:53;0.95;;;0.75;;
68593;SDS011;55563;52.416;13.548;2023-10-08T11:29:06;0.98;;;0.60;;
68593;SDS011;55563;52.416;13.548;2023-10-08T11:31:15;0.50;;;0.50;;
68593;SDS011;55563;52.416;13.548;2023-10-08T11:33:20;0.50;;;0.50;;
68593;SDS011;55563;52.416;13.548;2023-10-08T11:37:29;0.60;;;0.60;;
68593;SDS011;55563;52.416;13.548;2023-10-08T11:39:35;0.50;;;0.50;;
68593;SDS011;55563;52.416;13.548;2023-10-08T11:41:57;0.60;;;0.60;;
68593;SDS011;55563;52.416;13.548;2023-10-08T11:44:26;0.50;;;0.50;;
68593;SDS011;55563;52.416;13.548;2023-10-08T11:46:30;0.60;;;0.60;;
68593;SDS011;55563;52.416;13.548;2023-10-08T11:48:38;0.85;;;0.60;;
68593;SDS011;55563;52.416;13.548;2023-10-08T11:50:43;1.35;;;0.70;;
68593;SDS011;55563;52.416;13.548;2023-10-08T11:52:44;0.80;;;0.75;;
68593;SDS011;55563;52.416;13.548;2023-10-08T11:54:45;0.60;;;0.52;;
68593;SDS011;55563;52.416;13.548;2023-10-08T11:56:49;0.40;;;0.40;;
68593;SDS011;55563;52.416;13.548;2023-10-08T11:58:50;0.77;;;0.68;;
68593;SDS011;55563;52.416;13.548;2023-10-08T12:00:51;0.65;;;0.57;;
68593;SDS011;55563;52.416;13.548;2023-10-08T12:02:52;0.80;;;0.60;;
68593;SDS011;55563;52.416;13.548;2023-10-08T12:04:56;0.60;;;0.60;;
68593;SDS011;55563;52.416;13.548;2023-10-08T12:09:02;1.13;;;0.60;;
68593;SDS011;55563;52.416;13.548;2023-10-08T12:11:12;0.50;;;0.50;;
68593;SDS011;55563;52.416;13.548;2023-10-08T12:13:14;0.63;;;0.63;;
68593;SDS011;55563;52.416;13.548;2023-10-08T12:15:19;0.80;;;0.55;;
68593;SDS011;55563;52.416;13.548;2023-10-08T12:17:20;0.98;;;0.52;;
68593;SDS011;55563;52.416;13.548;2023-10-08T12:19:30;0.70;;;0.60;;
68593;SDS011;55563;52.416;13.548;2023-10-08T12:21:32;0.75;;;0.75;;
68593;SDS011;55563;52.416;13.548;2023-10-08T12:23:33;1.05;;;0.73;;
68593;SDS011;55563;52.416;13.548;2023-10-08T12:25:34;0.68;;;0.68;;
68593;SDS011;55563;52.416;13.548;2023-10-08T12:27:34;0.65;;;0.50;;
68593;SDS011;55563;52.416;13.548;2023-10-08T12:29:35;0.50;;;0.50;;
68593;SDS011;55563;52.416;13.548;2023-10-08T12:31:35;0.63;;;0.50;;
68593;SDS011;55563;52.416;13.548;2023-10-08T12:33:36;0.63;;;0.63;;
68593;SDS011;55563;52.416;13.548;2023-10-08T12:35:37;0.50;;;0.50;;
68593;SDS011;55563;52.416;13.548;2023-10-08T12:37:40;1.58;;;0.60;;
68593;SDS011;55563;52.416;13.548;2023-10-08T12:39:41;0.57;;;0.47;;
68593;SDS011;55563;52.416;13.548;2023-10-08T12:41:57;0.50;;;0.50;;
68593;SDS011;55563;52.416;13.548;2023-10-08T12:44:05;0.90;;;0.55;;
68593;SDS011;55563;52.416;13.548;2023-10-08T12:46:09;0.60;;;0.60;;
68593;SDS011;55563;52.416;13.548;2023-10-08T12:48:16;1.25;;;0.60;;
68593;SDS011;55563;52.416;13.548;2023-10-08T12:50:17;0.85;;;0.52;;
68593;SDS011;55563;52.416;13.548;2023-10-08T12:52:29;1.05;;;0.93;;